Atlanta, Idaho
Current Conditions -  °F | °C
As of 1:47 PM on Monday 24 Nov 2014 (Local Time) from KSUN Reporting Station
Scattered Clouds Scattered Clouds  
Wind Chill: 27°   Ceiling: Unl
Heat Index: 36°   Visibility: 10mi
Dew Point: 18°   Wind: 13mph
Humidity: 48%   Direction: 120°ESE
Pressure: 30.33"   Gusts: NA
Location:  43.8°N, 115.13°W
Report Text: KSUN 242047Z 12011KT 10SM FEW150 SCT160 02/M08 A3033
Loading
Personal Weather Stations






























Interactive Weather Map New forecast layout! Learn more

10-Day Weather Forecast

Advertisements
Track Severe Weather on mobile